sensor_id;sensor_type;location;lat;lon;timestamp;temperature;humidity
5705;DHT22;2877;48.238;11.160;2022-08-02T00:01:32;16.40;99.90
5705;DHT22;2877;48.238;11.160;2022-08-02T00:03:58;16.40;99.90
5705;DHT22;2877;48.238;11.160;2022-08-02T00:06:24;16.40;99.90
5705;DHT22;2877;48.238;11.160;2022-08-02T00:08:50;16.40;99.90
5705;DHT22;2877;48.238;11.160;2022-08-02T00:11:15;16.40;99.90
5705;DHT22;2877;48.238;11.160;2022-08-02T00:13:41;16.40;99.90
5705;DHT22;2877;48.238;11.160;2022-08-02T00:16:07;16.50;99.90
5705;DHT22;2877;48.238;11.160;2022-08-02T00:18:32;16.50;99.90
5705;DHT22;2877;48.238;11.160;2022-08-02T00:20:58;16.50;99.90
5705;DHT22;2877;48.238;11.160;2022-08-02T00:23:23;16.50;99.90
5705;DHT22;2877;48.238;11.160;2022-08-02T00:25:49;16.50;99.90
5705;DHT22;2877;48.238;11.160;2022-08-02T00:28:14;16.50;99.90
5705;DHT22;2877;48.238;11.160;2022-08-02T00:30:40;16.50;99.90
5705;DHT22;2877;48.238;11.160;2022-08-02T00:33:05;16.50;99.90
5705;DHT22;2877;48.238;11.160;2022-08-02T00:35:33;16.40;99.90
5705;DHT22;2877;48.238;11.160;2022-08-02T00:37:58;16.40;99.90
5705;DHT22;2877;48.238;11.160;2022-08-02T00:40:24;16.40;99.90
5705;DHT22;2877;48.238;11.160;2022-08-02T00:43:10;16.30;99.90
5705;DHT22;2877;48.238;11.160;2022-08-02T00:45:38;16.30;99.90
5705;DHT22;2877;48.238;11.160;2022-08-02T00:48:05;16.30;99.90
5705;DHT22;2877;48.238;11.160;2022-08-02T00:50:32;16.30;99.90
5705;DHT22;2877;48.238;11.160;2022-08-02T00:52:58;16.40;99.90
5705;DHT22;2877;48.238;11.160;2022-08-02T00:55:24;16.30;99.90
5705;DHT22;2877;48.238;11.160;2022-08-02T00:57:50;16.30;99.90
5705;DHT22;2877;48.238;11.160;2022-08-02T01:00:17;16.20;99.90
5705;DHT22;2877;48.238;11.160;2022-08-02T01:02:43;16.20;99.90
5705;DHT22;2877;48.238;11.160;2022-08-02T01:05:09;16.10;99.90
5705;DHT22;2877;48.238;11.160;2022-08-02T01:07:35;16.10;99.90
5705;DHT22;2877;48.238;11.160;2022-08-02T01:10:00;16.10;99.90
5705;DHT22;2877;48.238;11.160;2022-08-02T01:12:26;16.00;99.90
5705;DHT22;2877;48.238;11.160;2022-08-02T01:14:55;15.90;99.90
5705;DHT22;2877;48.238;11.160;2022-08-02T01:20:17;15.90;99.90
5705;DHT22;2877;48.238;11.160;2022-08-02T01:28:40;16.10;99.90
5705;DHT22;2877;48.238;11.160;2022-08-02T01:33:50;16.10;99.90
5705;DHT22;2877;48.238;11.160;2022-08-02T01:36:20;16.20;99.90
5705;DHT22;2877;48.238;11.160;2022-08-02T01:38:49;16.30;99.90
5705;DHT22;2877;48.238;11.160;2022-08-02T01:41:21;16.30;99.90
5705;DHT22;2877;48.238;11.160;2022-08-02T01:43:52;16.40;99.90
5705;DHT22;2877;48.238;11.160;2022-08-02T01:46:19;16.30;99.90
5705;DHT22;2877;48.238;11.160;2022-08-02T01:48:46;16.30;99.90
5705;DHT22;2877;48.238;11.160;2022-08-02T01:51:15;16.40;99.90
5705;DHT22;2877;48.238;11.160;2022-08-02T01:53:44;16.40;99.90
5705;DHT22;2877;48.238;11.160;2022-08-02T01:56:14;16.40;99.90
5705;DHT22;2877;48.238;11.160;2022-08-02T01:58:40;16.40;99.90
5705;DHT22;2877;48.238;11.160;2022-08-02T02:01:08;16.30;99.90
5705;DHT22;2877;48.238;11.160;2022-08-02T02:03:37;16.20;99.90
5705;DHT22;2877;48.238;11.160;2022-08-02T02:06:06;16.20;99.90
5705;DHT22;2877;48.238;11.160;2022-08-02T02:08:35;16.20;99.90
5705;DHT22;2877;48.238;11.160;2022-08-02T02:11:02;16.20;99.90
5705;DHT22;2877;48.238;11.160;2022-08-02T02:13:29;16.10;99.90
5705;DHT22;2877;48.238;11.160;2022-08-02T02:15:56;16.00;99.90
5705;DHT22;2877;48.238;11.160;2022-08-02T02:18:24;16.00;99.90
5705;DHT22;2877;48.238;11.160;2022-08-02T02:20:51;16.00;99.90
5705;DHT22;2877;48.238;11.160;2022-08-02T02:23:18;15.90;99.90
5705;DHT22;2877;48.238;11.160;2022-08-02T02:25:43;15.90;99.90
5705;DHT22;2877;48.238;11.160;2022-08-02T02:28:24;15.90;99.90
5705;DHT22;2877;48.238;11.160;2022-08-02T02:31:02;15.80;99.90
5705;DHT22;2877;48.238;11.160;2022-08-02T02:33:31;15.80;99.90
5705;DHT22;2877;48.238;11.160;2022-08-02T02:35:58;15.70;99.90
5705;DHT22;2877;48.238;11.160;2022-08-02T02:38:29;15.60;99.90
5705;DHT22;2877;48.238;11.160;2022-08-02T02:40:57;15.60;99.90
5705;DHT22;2877;48.238;11.160;2022-08-02T02:43:27;15.50;99.90
5705;DHT22;2877;48.238;11.160;2022-08-02T02:45:54;15.50;99.90
5705;DHT22;2877;48.238;11.160;2022-08-02T02:48:21;15.50;99.90
5705;DHT22;2877;48.238;11.160;2022-08-02T02:50:47;15.50;99.90
5705;DHT22;2877;48.238;11.160;2022-08-02T02:53:16;15.40;99.90
5705;DHT22;2877;48.238;11.160;2022-08-02T02:55:42;15.40;99.90
5705;DHT22;2877;48.238;11.160;2022-08-02T02:58:09;15.40;99.90
5705;DHT22;2877;48.238;11.160;2022-08-02T03:00:35;15.30;99.90
5705;DHT22;2877;48.238;11.160;2022-08-02T03:03:21;15.30;99.90
5705;DHT22;2877;48.238;11.160;2022-08-02T03:05:47;15.30;99.90
5705;DHT22;2877;48.238;11.160;2022-08-02T03:08:12;15.20;99.90
5705;DHT22;2877;48.238;11.160;2022-08-02T03:10:38;15.20;99.90
5705;DHT22;2877;48.238;11.160;2022-08-02T03:13:04;15.20;99.90
5705;DHT22;2877;48.238;11.160;2022-08-02T03:15:30;15.20;99.90
5705;DHT22;2877;48.238;11.160;2022-08-02T03:17:56;15.10;99.90
5705;DHT22;2877;48.238;11.160;2022-08-02T03:20:22;15.20;99.90
5705;DHT22;2877;48.238;11.160;2022-08-02T03:22:48;15.20;99.90
5705;DHT22;2877;48.238;11.160;2022-08-02T03:25:15;15.20;99.90
5705;DHT22;2877;48.238;11.160;2022-08-02T03:27:41;15.10;99.90
5705;DHT22;2877;48.238;11.160;2022-08-02T03:30:08;15.10;99.90
5705;DHT22;2877;48.238;11.160;2022-08-02T03:32:35;15.10;99.90
5705;DHT22;2877;48.238;11.160;2022-08-02T03:35:02;15.10;99.90
5705;DHT22;2877;48.238;11.160;2022-08-02T03:37:29;15.10;99.90
5705;DHT22;2877;48.238;11.160;2022-08-02T03:39:57;15.10;99.90
5705;DHT22;2877;48.238;11.160;2022-08-02T03:42:24;15.00;99.90
5705;DHT22;2877;48.238;11.160;2022-08-02T03:44:52;15.10;99.90
5705;DHT22;2877;48.238;11.160;2022-08-02T03:47:18;15.10;99.90
5705;DHT22;2877;48.238;11.160;2022-08-02T03:49:44;15.10;99.90
5705;DHT22;2877;48.238;11.160;2022-08-02T03:52:10;15.10;99.90
5705;DHT22;2877;48.238;11.160;2022-08-02T03:54:36;15.10;99.90
5705;DHT22;2877;48.238;11.160;2022-08-02T03:57:05;15.20;99.90
5705;DHT22;2877;48.238;11.160;2022-08-02T03:59:39;15.20;99.90
5705;DHT22;2877;48.238;11.160;2022-08-02T04:02:06;15.10;99.90
5705;DHT22;2877;48.238;11.160;2022-08-02T04:04:31;15.10;99.90
5705;DHT22;2877;48.238;11.160;2022-08-02T04:06:57;15.10;99.90
5705;DHT22;2877;48.238;11.160;2022-08-02T04:09:22;15.10;99.90
5705;DHT22;2877;48.238;11.160;2022-08-02T04:11:48;15.10;99.90
5705;DHT22;2877;48.238;11.160;2022-08-02T04:14:13;15.10;99.90
5705;DHT22;2877;48.238;11.160;2022-08-02T04:16:51;15.10;99.90
5705;DHT22;2877;48.238;11.160;2022-08-02T04:19:42;15.10;99.90
5705;DHT22;2877;48.238;11.160;2022-08-02T04:22:15;15.10;99.90
5705;DHT22;2877;48.238;11.160;2022-08-02T04:24:48;15.00;99.90
5705;DHT22;2877;48.238;11.160;2022-08-02T04:27:15;15.10;99.90
5705;DHT22;2877;48.238;11.160;2022-08-02T04:29:42;15.10;99.90
5705;DHT22;2877;48.238;11.160;2022-08-02T04:32:07;15.10;99.90
5705;DHT22;2877;48.238;11.160;2022-08-02T04:34:34;15.20;99.90
5705;DHT22;2877;48.238;11.160;2022-08-02T04:37:00;15.30;99.90
5705;DHT22;2877;48.238;11.160;2022-08-02T04:39:26;15.30;99.90
5705;DHT22;2877;48.238;11.160;2022-08-02T04:41:51;15.30;99.90
5705;DHT22;2877;48.238;11.160;2022-08-02T04:44:17;15.40;99.90
5705;DHT22;2877;48.238;11.160;2022-08-02T04:46:43;15.40;99.90
5705;DHT22;2877;48.238;11.160;2022-08-02T04:49:09;15.40;99.90
5705;DHT22;2877;48.238;11.160;2022-08-02T04:51:40;15.50;99.90
5705;DHT22;2877;48.238;11.160;2022-08-02T04:54:07;15.50;99.90
5705;DHT22;2877;48.238;11.160;2022-08-02T04:56:33;15.50;99.90
5705;DHT22;2877;48.238;11.160;2022-08-02T04:58:59;15.50;99.90
5705;DHT22;2877;48.238;11.160;2022-08-02T05:01:25;15.60;99.90
5705;DHT22;2877;48.238;11.160;2022-08-02T05:03:50;15.70;99.90
5705;DHT22;2877;48.238;11.160;2022-08-02T05:06:16;15.70;99.90
5705;DHT22;2877;48.238;11.160;2022-08-02T05:08:44;15.80;99.90
5705;DHT22;2877;48.238;11.160;2022-08-02T05:11:10;15.90;99.90
5705;DHT22;2877;48.238;11.160;2022-08-02T05:13:35;15.90;99.90
5705;DHT22;2877;48.238;11.160;2022-08-02T05:16:01;15.90;99.90
5705;DHT22;2877;48.238;11.160;2022-08-02T05:18:29;15.90;99.90
5705;DHT22;2877;48.238;11.160;2022-08-02T05:20:54;15.90;99.90
5705;DHT22;2877;48.238;11.160;2022-08-02T05:23:20;15.90;99.90
5705;DHT22;2877;48.238;11.160;2022-08-02T05:25:46;15.90;99.90
5705;DHT22;2877;48.238;11.160;2022-08-02T05:28:11;16.00;99.90
5705;DHT22;2877;48.238;11.160;2022-08-02T05:30:37;16.10;99.90
5705;DHT22;2877;48.238;11.160;2022-08-02T05:33:03;16.30;99.90
5705;DHT22;2877;48.238;11.160;2022-08-02T05:35:29;16.40;99.90
5705;DHT22;2877;48.238;11.160;2022-08-02T05:37:54;16.50;99.90
5705;DHT22;2877;48.238;11.160;2022-08-02T05:40:20;16.60;99.90
5705;DHT22;2877;48.238;11.160;2022-08-02T05:42:45;16.70;99.90
5705;DHT22;2877;48.238;11.160;2022-08-02T05:45:11;16.80;99.90
5705;DHT22;2877;48.238;11.160;2022-08-02T05:47:37;17.00;99.90
5705;DHT22;2877;48.238;11.160;2022-08-02T05:50:06;17.20;99.90
5705;DHT22;2877;48.238;11.160;2022-08-02T05:53:17;17.30;99.90
5705;DHT22;2877;48.238;11.160;2022-08-02T05:55:49;17.40;99.90
5705;DHT22;2877;48.238;11.160;2022-08-02T05:58:23;17.50;99.90
5705;DHT22;2877;48.238;11.160;2022-08-02T06:00:54;17.60;99.90
5705;DHT22;2877;48.238;11.160;2022-08-02T06:05:58;17.80;99.90
5705;DHT22;2877;48.238;11.160;2022-08-02T06:08:32;18.00;99.90
5705;DHT22;2877;48.238;11.160;2022-08-02T06:11:00;18.10;99.90
5705;DHT22;2877;48.238;11.160;2022-08-02T06:13:27;18.10;99.90
5705;DHT22;2877;48.238;11.160;2022-08-02T06:15:53;18.10;99.90
5705;DHT22;2877;48.238;11.160;2022-08-02T06:18:27;18.10;99.90
5705;DHT22;2877;48.238;11.160;2022-08-02T06:20:55;18.20;99.90
5705;DHT22;2877;48.238;11.160;2022-08-02T06:23:22;18.30;99.90
5705;DHT22;2877;48.238;11.160;2022-08-02T06:25:49;18.20;99.90
5705;DHT22;2877;48.238;11.160;2022-08-02T06:28:15;18.30;99.90
5705;DHT22;2877;48.238;11.160;2022-08-02T06:30:43;18.40;99.90
5705;DHT22;2877;48.238;11.160;2022-08-02T06:33:08;18.40;99.90
5705;DHT22;2877;48.238;11.160;2022-08-02T06:35:48;18.40;99.90
5705;DHT22;2877;48.238;11.160;2022-08-02T06:38:21;18.50;99.90
5705;DHT22;2877;48.238;11.160;2022-08-02T06:43:48;18.60;99.90
5705;DHT22;2877;48.238;11.160;2022-08-02T06:46:15;18.70;99.90
5705;DHT22;2877;48.238;11.160;2022-08-02T06:48:41;18.90;99.90
5705;DHT22;2877;48.238;11.160;2022-08-02T06:51:06;19.10;99.90
5705;DHT22;2877;48.238;11.160;2022-08-02T06:53:32;19.30;99.90
5705;DHT22;2877;48.238;11.160;2022-08-02T06:55:58;19.40;99.90
5705;DHT22;2877;48.238;11.160;2022-08-02T06:58:23;19.60;99.90
5705;DHT22;2877;48.238;11.160;2022-08-02T07:00:49;19.60;99.90
5705;DHT22;2877;48.238;11.160;2022-08-02T07:03:14;19.70;99.90
5705;DHT22;2877;48.238;11.160;2022-08-02T07:05:40;19.80;99.90
5705;DHT22;2877;48.238;11.160;2022-08-02T07:08:07;19.60;99.90
5705;DHT22;2877;48.238;11.160;2022-08-02T07:10:33;19.50;99.90
5705;DHT22;2877;48.238;11.160;2022-08-02T07:12:58;19.60;99.90
5705;DHT22;2877;48.238;11.160;2022-08-02T07:15:24;19.80;99.90
5705;DHT22;2877;48.238;11.160;2022-08-02T07:17:50;20.10;99.90
5705;DHT22;2877;48.238;11.160;2022-08-02T07:20:15;20.20;99.90
5705;DHT22;2877;48.238;11.160;2022-08-02T07:22:41;20.40;99.90
5705;DHT22;2877;48.238;11.160;2022-08-02T07:25:07;20.40;99.90
5705;DHT22;2877;48.238;11.160;2022-08-02T07:27:33;20.60;99.90
5705;DHT22;2877;48.238;11.160;2022-08-02T07:30:00;20.60;99.90
5705;DHT22;2877;48.238;11.160;2022-08-02T07:32:29;20.60;99.90
5705;DHT22;2877;48.238;11.160;2022-08-02T07:34:55;20.70;99.90
5705;DHT22;2877;48.238;11.160;2022-08-02T07:37:26;20.90;99.90
5705;DHT22;2877;48.238;11.160;2022-08-02T07:39:52;21.00;99.90
5705;DHT22;2877;48.238;11.160;2022-08-02T07:42:18;21.10;99.90
5705;DHT22;2877;48.238;11.160;2022-08-02T07:44:44;21.10;99.90
5705;DHT22;2877;48.238;11.160;2022-08-02T07:47:10;21.10;99.90
5705;DHT22;2877;48.238;11.160;2022-08-02T07:49:35;21.40;99.90
5705;DHT22;2877;48.238;11.160;2022-08-02T07:52:01;21.70;99.90
5705;DHT22;2877;48.238;11.160;2022-08-02T07:54:26;21.90;99.90
5705;DHT22;2877;48.238;11.160;2022-08-02T07:56:52;21.90;99.90
5705;DHT22;2877;48.238;11.160;2022-08-02T07:59:19;21.80;99.90
5705;DHT22;2877;48.238;11.160;2022-08-02T08:01:44;21.80;99.90
5705;DHT22;2877;48.238;11.160;2022-08-02T08:04:10;21.70;99.90
5705;DHT22;2877;48.238;11.160;2022-08-02T08:06:35;21.80;99.90
5705;DHT22;2877;48.238;11.160;2022-08-02T08:09:01;21.60;99.90
5705;DHT22;2877;48.238;11.160;2022-08-02T08:11:26;21.60;99.90
5705;DHT22;2877;48.238;11.160;2022-08-02T08:13:52;21.80;99.90
5705;DHT22;2877;48.238;11.160;2022-08-02T08:16:18;22.00;99.90
5705;DHT22;2877;48.238;11.160;2022-08-02T08:18:44;22.30;99.90
5705;DHT22;2877;48.238;11.160;2022-08-02T08:21:09;22.60;99.90
5705;DHT22;2877;48.238;11.160;2022-08-02T08:23:35;22.90;99.90
5705;DHT22;2877;48.238;11.160;2022-08-02T08:26:02;23.00;99.90
5705;DHT22;2877;48.238;11.160;2022-08-02T08:28:27;22.80;99.90
5705;DHT22;2877;48.238;11.160;2022-08-02T08:30:53;23.10;99.90
5705;DHT22;2877;48.238;11.160;2022-08-02T08:33:18;23.30;99.90
5705;DHT22;2877;48.238;11.160;2022-08-02T08:35:44;23.50;99.90
5705;DHT22;2877;48.238;11.160;2022-08-02T08:38:10;23.70;99.90
5705;DHT22;2877;48.238;11.160;2022-08-02T08:40:36;24.00;99.90
5705;DHT22;2877;48.238;11.160;2022-08-02T08:43:02;24.10;99.90
5705;DHT22;2877;48.238;11.160;2022-08-02T08:45:28;24.30;99.90
5705;DHT22;2877;48.238;11.160;2022-08-02T08:48:09;24.40;99.90
5705;DHT22;2877;48.238;11.160;2022-08-02T08:50:40;24.40;99.90
5705;DHT22;2877;48.238;11.160;2022-08-02T08:53:08;24.00;99.90
5705;DHT22;2877;48.238;11.160;2022-08-02T08:55:35;23.70;99.90
5705;DHT22;2877;48.238;11.160;2022-08-02T08:58:02;23.90;99.90
5705;DHT22;2877;48.238;11.160;2022-08-02T09:00:30;24.10;99.90
5705;DHT22;2877;48.238;11.160;2022-08-02T09:02:56;24.60;99.90
5705;DHT22;2877;48.238;11.160;2022-08-02T09:05:22;25.10;99.90
5705;DHT22;2877;48.238;11.160;2022-08-02T09:07:50;25.40;99.90
5705;DHT22;2877;48.238;11.160;2022-08-02T09:10:44;25.70;99.90
5705;DHT22;2877;48.238;11.160;2022-08-02T09:13:19;26.00;99.90
5705;DHT22;2877;48.238;11.160;2022-08-02T09:15:53;26.20;99.90
5705;DHT22;2877;48.238;11.160;2022-08-02T09:18:27;25.70;99.90
5705;DHT22;2877;48.238;11.160;2022-08-02T09:20:58;26.00;99.90
5705;DHT22;2877;48.238;11.160;2022-08-02T09:23:25;26.50;99.90
5705;DHT22;2877;48.238;11.160;2022-08-02T09:25:56;26.40;99.90
5705;DHT22;2877;48.238;11.160;2022-08-02T09:28:26;26.40;99.90
5705;DHT22;2877;48.238;11.160;2022-08-02T09:30:52;26.30;99.90
5705;DHT22;2877;48.238;11.160;2022-08-02T09:33:27;25.80;99.90
5705;DHT22;2877;48.238;11.160;2022-08-02T09:36:00;25.80;99.90
5705;DHT22;2877;48.238;11.160;2022-08-02T09:38:26;25.50;99.90
5705;DHT22;2877;48.238;11.160;2022-08-02T09:40:52;25.30;99.90
5705;DHT22;2877;48.238;11.160;2022-08-02T09:43:17;25.30;99.90
5705;DHT22;2877;48.238;11.160;2022-08-02T09:45:45;25.20;99.90
5705;DHT22;2877;48.238;11.160;2022-08-02T09:48:10;24.80;99.90
5705;DHT22;2877;48.238;11.160;2022-08-02T09:50:38;24.80;99.90
5705;DHT22;2877;48.238;11.160;2022-08-02T09:53:04;24.40;99.90
5705;DHT22;2877;48.238;11.160;2022-08-02T09:55:30;24.00;99.90
5705;DHT22;2877;48.238;11.160;2022-08-02T09:57:56;23.70;99.90
5705;DHT22;2877;48.238;11.160;2022-08-02T10:00:22;24.00;99.90
5705;DHT22;2877;48.238;11.160;2022-08-02T10:03:08;24.70;99.90
5705;DHT22;2877;48.238;11.160;2022-08-02T10:05:47;25.50;99.90
5705;DHT22;2877;48.238;11.160;2022-08-02T10:08:14;26.20;99.90
5705;DHT22;2877;48.238;11.160;2022-08-02T10:10:41;26.50;99.60
5705;DHT22;2877;48.238;11.160;2022-08-02T10:13:07;26.40;99.90
5705;DHT22;2877;48.238;11.160;2022-08-02T10:15:34;26.50;98.50
5705;DHT22;2877;48.238;11.160;2022-08-02T10:17:59;26.10;99.90
5705;DHT22;2877;48.238;11.160;2022-08-02T10:20:25;25.90;99.70
5705;DHT22;2877;48.238;11.160;2022-08-02T10:22:52;25.50;99.90
5705;DHT22;2877;48.238;11.160;2022-08-02T10:25:19;25.50;99.90
5705;DHT22;2877;48.238;11.160;2022-08-02T10:27:46;25.60;99.90
5705;DHT22;2877;48.238;11.160;2022-08-02T10:30:13;26.00;97.80
5705;DHT22;2877;48.238;11.160;2022-08-02T10:32:42;26.50;96.80
5705;DHT22;2877;48.238;11.160;2022-08-02T10:35:14;26.60;96.20
5705;DHT22;2877;48.238;11.160;2022-08-02T10:37:40;26.50;98.10
5705;DHT22;2877;48.238;11.160;2022-08-02T10:40:09;26.50;98.40
5705;DHT22;2877;48.238;11.160;2022-08-02T10:42:52;26.30;97.80
5705;DHT22;2877;48.238;11.160;2022-08-02T10:45:19;26.50;99.50
5705;DHT22;2877;48.238;11.160;2022-08-02T10:48:09;27.00;97.80
5705;DHT22;2877;48.238;11.160;2022-08-02T10:55:45;28.30;93.50
5705;DHT22;2877;48.238;11.160;2022-08-02T10:58:19;27.90;93.60
5705;DHT22;2877;48.238;11.160;2022-08-02T11:00:46;27.90;92.30
5705;DHT22;2877;48.238;11.160;2022-08-02T11:06:01;28.20;91.50
5705;DHT22;2877;48.238;11.160;2022-08-02T11:08:28;27.70;90.20
5705;DHT22;2877;48.238;11.160;2022-08-02T11:11:14;27.80;89.50
5705;DHT22;2877;48.238;11.160;2022-08-02T11:19:19;28.40;90.40
5705;DHT22;2877;48.238;11.160;2022-08-02T11:22:07;29.00;89.40
5705;DHT22;2877;48.238;11.160;2022-08-02T11:24:36;28.20;84.60
5705;DHT22;2877;48.238;11.160;2022-08-02T11:27:07;27.90;89.10
5705;DHT22;2877;48.238;11.160;2022-08-02T11:29:41;28.30;86.10
5705;DHT22;2877;48.238;11.160;2022-08-02T11:32:15;27.90;85.10
5705;DHT22;2877;48.238;11.160;2022-08-02T11:34:45;28.10;90.40
5705;DHT22;2877;48.238;11.160;2022-08-02T11:37:11;28.80;87.00
5705;DHT22;2877;48.238;11.160;2022-08-02T11:39:37;29.10;89.30
5705;DHT22;2877;48.238;11.160;2022-08-02T11:42:03;29.60;86.80
5705;DHT22;2877;48.238;11.160;2022-08-02T11:44:39;30.20;81.10
5705;DHT22;2877;48.238;11.160;2022-08-02T11:47:05;30.80;80.80
5705;DHT22;2877;48.238;11.160;2022-08-02T11:49:36;31.10;76.40
5705;DHT22;2877;48.238;11.160;2022-08-02T11:52:06;30.40;78.00
5705;DHT22;2877;48.238;11.160;2022-08-02T11:54:33;29.20;79.70
5705;DHT22;2877;48.238;11.160;2022-08-02T11:57:20;28.30;82.30
5705;DHT22;2877;48.238;11.160;2022-08-02T11:59:48;27.80;82.20
5705;DHT22;2877;48.238;11.160;2022-08-02T12:02:15;27.30;81.70
5705;DHT22;2877;48.238;11.160;2022-08-02T12:04:41;26.90;82.60
5705;DHT22;2877;48.238;11.160;2022-08-02T12:07:07;27.40;83.20
5705;DHT22;2877;48.238;11.160;2022-08-02T12:09:34;28.00;81.70
5705;DHT22;2877;48.238;11.160;2022-08-02T12:12:00;28.10;82.60
5705;DHT22;2877;48.238;11.160;2022-08-02T12:14:28;28.10;84.10
5705;DHT22;2877;48.238;11.160;2022-08-02T12:16:54;28.10;84.60
5705;DHT22;2877;48.238;11.160;2022-08-02T12:19:39;27.90;81.10
5705;DHT22;2877;48.238;11.160;2022-08-02T12:22:13;28.80;85.40
5705;DHT22;2877;48.238;11.160;2022-08-02T12:24:41;30.10;82.40
5705;DHT22;2877;48.238;11.160;2022-08-02T12:27:07;31.10;77.80
5705;DHT22;2877;48.238;11.160;2022-08-02T12:29:38;31.60;70.90
5705;DHT22;2877;48.238;11.160;2022-08-02T12:32:04;31.40;68.90
5705;DHT22;2877;48.238;11.160;2022-08-02T12:34:32;31.00;69.20
5705;DHT22;2877;48.238;11.160;2022-08-02T12:37:06;30.70;69.40
5705;DHT22;2877;48.238;11.160;2022-08-02T12:39:50;30.30;70.00
5705;DHT22;2877;48.238;11.160;2022-08-02T12:42:18;30.30;70.10
5705;DHT22;2877;48.238;11.160;2022-08-02T12:44:54;30.70;69.40
5705;DHT22;2877;48.238;11.160;2022-08-02T12:47:19;31.10;69.80
5705;DHT22;2877;48.238;11.160;2022-08-02T12:50:14;32.10;68.50
5705;DHT22;2877;48.238;11.160;2022-08-02T12:52:40;32.20;63.70
5705;DHT22;2877;48.238;11.160;2022-08-02T12:55:20;31.50;65.30
5705;DHT22;2877;48.238;11.160;2022-08-02T13:00:24;29.90;67.50
5705;DHT22;2877;48.238;11.160;2022-08-02T13:02:50;29.50;66.70
5705;DHT22;2877;48.238;11.160;2022-08-02T13:05:16;28.80;68.90
5705;DHT22;2877;48.238;11.160;2022-08-02T13:07:41;28.60;70.20
5705;DHT22;2877;48.238;11.160;2022-08-02T13:10:07;28.90;70.00
5705;DHT22;2877;48.238;11.160;2022-08-02T13:12:33;29.70;68.80
5705;DHT22;2877;48.238;11.160;2022-08-02T13:14:58;30.80;66.50
5705;DHT22;2877;48.238;11.160;2022-08-02T13:17:24;32.40;62.70
5705;DHT22;2877;48.238;11.160;2022-08-02T13:19:49;33.80;60.00
5705;DHT22;2877;48.238;11.160;2022-08-02T13:22:15;35.20;57.20
5705;DHT22;2877;48.238;11.160;2022-08-02T13:24:42;36.40;55.10
5705;DHT22;2877;48.238;11.160;2022-08-02T13:27:08;37.90;52.90
5705;DHT22;2877;48.238;11.160;2022-08-02T13:29:34;39.20;48.20
5705;DHT22;2877;48.238;11.160;2022-08-02T13:32:00;39.90;45.90
5705;DHT22;2877;48.238;11.160;2022-08-02T13:34:25;40.30;44.00
5705;DHT22;2877;48.238;11.160;2022-08-02T13:36:51;40.60;41.50
5705;DHT22;2877;48.238;11.160;2022-08-02T13:39:17;40.80;41.20
5705;DHT22;2877;48.238;11.160;2022-08-02T13:41:42;41.40;40.90
5705;DHT22;2877;48.238;11.160;2022-08-02T13:44:08;41.70;38.70
5705;DHT22;2877;48.238;11.160;2022-08-02T13:46:34;42.60;36.80
5705;DHT22;2877;48.238;11.160;2022-08-02T13:49:00;42.80;34.50
5705;DHT22;2877;48.238;11.160;2022-08-02T13:51:26;41.30;35.00
5705;DHT22;2877;48.238;11.160;2022-08-02T13:53:51;37.40;38.50
5705;DHT22;2877;48.238;11.160;2022-08-02T13:56:17;34.90;41.70
5705;DHT22;2877;48.238;11.160;2022-08-02T13:58:43;33.60;44.60
5705;DHT22;2877;48.238;11.160;2022-08-02T14:01:08;34.50;44.30
5705;DHT22;2877;48.238;11.160;2022-08-02T14:03:34;36.00;41.50
5705;DHT22;2877;48.238;11.160;2022-08-02T14:05:59;37.40;39.90
5705;DHT22;2877;48.238;11.160;2022-08-02T14:08:25;38.60;40.10
5705;DHT22;2877;48.238;11.160;2022-08-02T14:10:51;39.30;37.80
5705;DHT22;2877;48.238;11.160;2022-08-02T14:13:16;37.60;37.70
5705;DHT22;2877;48.238;11.160;2022-08-02T14:15:42;37.30;39.80
5705;DHT22;2877;48.238;11.160;2022-08-02T14:18:08;37.90;39.10
5705;DHT22;2877;48.238;11.160;2022-08-02T14:20:33;38.20;38.40
5705;DHT22;2877;48.238;11.160;2022-08-02T14:22:59;37.60;39.50
5705;DHT22;2877;48.238;11.160;2022-08-02T14:25:25;38.30;40.90
5705;DHT22;2877;48.238;11.160;2022-08-02T14:27:50;38.60;38.70
5705;DHT22;2877;48.238;11.160;2022-08-02T14:30:16;39.40;38.30
5705;DHT22;2877;48.238;11.160;2022-08-02T14:32:42;39.80;36.70
5705;DHT22;2877;48.238;11.160;2022-08-02T14:35:08;40.20;36.30
5705;DHT22;2877;48.238;11.160;2022-08-02T14:37:34;40.60;35.30
5705;DHT22;2877;48.238;11.160;2022-08-02T14:39:59;41.20;35.90
5705;DHT22;2877;48.238;11.160;2022-08-02T14:42:25;41.50;34.70
5705;DHT22;2877;48.238;11.160;2022-08-02T14:44:50;41.30;35.20
5705;DHT22;2877;48.238;11.160;2022-08-02T14:47:16;40.20;35.50
5705;DHT22;2877;48.238;11.160;2022-08-02T14:49:41;39.70;33.60
5705;DHT22;2877;48.238;11.160;2022-08-02T14:52:07;40.20;30.90
5705;DHT22;2877;48.238;11.160;2022-08-02T14:54:33;39.60;29.70
5705;DHT22;2877;48.238;11.160;2022-08-02T14:57:00;39.00;31.20
5705;DHT22;2877;48.238;11.160;2022-08-02T14:59:26;36.20;35.60
5705;DHT22;2877;48.238;11.160;2022-08-02T15:01:52;35.50;39.60
5705;DHT22;2877;48.238;11.160;2022-08-02T15:04:18;35.80;37.80
5705;DHT22;2877;48.238;11.160;2022-08-02T15:06:44;35.20;37.80
5705;DHT22;2877;48.238;11.160;2022-08-02T15:09:09;34.80;39.40
5705;DHT22;2877;48.238;11.160;2022-08-02T15:11:35;34.20;39.70
5705;DHT22;2877;48.238;11.160;2022-08-02T15:14:02;33.10;39.40
5705;DHT22;2877;48.238;11.160;2022-08-02T15:16:28;31.90;40.70
5705;DHT22;2877;48.238;11.160;2022-08-02T15:18:58;31.40;42.20
5705;DHT22;2877;48.238;11.160;2022-08-02T15:21:24;31.00;43.50
5705;DHT22;2877;48.238;11.160;2022-08-02T15:23:49;30.50;43.30
5705;DHT22;2877;48.238;11.160;2022-08-02T15:26:15;30.30;44.80
5705;DHT22;2877;48.238;11.160;2022-08-02T15:28:40;30.30;46.20
5705;DHT22;2877;48.238;11.160;2022-08-02T15:31:06;30.10;46.60
5705;DHT22;2877;48.238;11.160;2022-08-02T15:33:31;30.10;45.30
5705;DHT22;2877;48.238;11.160;2022-08-02T15:35:57;30.10;45.40
5705;DHT22;2877;48.238;11.160;2022-08-02T15:38:22;29.70;48.40
5705;DHT22;2877;48.238;11.160;2022-08-02T15:40:48;29.80;48.70
5705;DHT22;2877;48.238;11.160;2022-08-02T15:43:14;29.80;48.10
5705;DHT22;2877;48.238;11.160;2022-08-02T15:45:39;30.20;48.30
5705;DHT22;2877;48.238;11.160;2022-08-02T15:48:05;30.30;47.50
5705;DHT22;2877;48.238;11.160;2022-08-02T15:50:31;30.20;47.30
5705;DHT22;2877;48.238;11.160;2022-08-02T15:52:57;29.90;47.70
5705;DHT22;2877;48.238;11.160;2022-08-02T15:55:22;29.50;48.10
5705;DHT22;2877;48.238;11.160;2022-08-02T15:57:48;29.00;48.80
5705;DHT22;2877;48.238;11.160;2022-08-02T16:00:14;28.90;50.30
5705;DHT22;2877;48.238;11.160;2022-08-02T16:02:40;29.20;51.10
5705;DHT22;2877;48.238;11.160;2022-08-02T16:05:06;29.40;49.50
5705;DHT22;2877;48.238;11.160;2022-08-02T16:07:32;29.20;48.50
5705;DHT22;2877;48.238;11.160;2022-08-02T16:09:57;29.20;49.60
5705;DHT22;2877;48.238;11.160;2022-08-02T16:12:23;29.30;49.70
5705;DHT22;2877;48.238;11.160;2022-08-02T16:14:48;29.10;49.30
5705;DHT22;2877;48.238;11.160;2022-08-02T16:17:14;29.20;48.10
5705;DHT22;2877;48.238;11.160;2022-08-02T16:19:39;29.40;48.30
5705;DHT22;2877;48.238;11.160;2022-08-02T16:22:05;29.70;49.80